Darby, MT (59829)

3:57 PM MST on January 19, 2017 (GMT -0700)
MHMTM8 | | Change Station

Elev 4247 ft 46.06 °N, 114.23 °W | Updated 42 minutes ago

Overcast
Overcast
39.0 °F
Feels Like 39.0 °F
N
-
Wind Variable Wind from North

Today
High -- | Low -- °F
--% Chance of Precip.
Yesterday
High -- | Low -- °F
Precip. -- in
Pressure 29.65 in
Visibility 2.0 miles
Clouds Mostly Cloudy 4000 ft
Overcast 6000 ft
Dew Point Not available.
Humidity Not available.
Rainfall 0.12 in
Snow Depth Not available.
8:11 AM 5:23 PM
Waning Gibbous, 50% visible
METAR KMSO 192253Z 00000KT 2SM -RA BR BKN040 OVC060 01/01 A2957 RMK AO2 RAE26B46 SLP040 P0000 T00110006
Pressure 29.65 in
Visibility 2.0 miles
Clouds Mostly Cloudy 4000 ft
Overcast 6000 ft
Dew Point Not available.
Humidity Not available.
Rainfall 0.12 in
Snow Depth Not available.
8:11 AM 5:23 PM
Waning Gibbous, 50% visible
METAR KMSO 192253Z 00000KT 2SM -RA BR BKN040 OVC060 01/01 A2957 RMK AO2 RAE26B46 SLP040 P0000 T00110006

Get Your Daily Forecast Email!

Thanks for signing up!

Be on the lookout for a verification email in your inbox.

You'll start receiving the daily forecast at 8 AM.

×

10-Day Weather Forecast

Almanac

Astronomy

Jan. 19, 2017 Rise Set
Actual Time
Civil Twilight
Nautical Twilight
Astronomical Twilight
Moon
Length of Visible Light
Length of Day
Tomorrow will be .
, % of the Moon is Illuminated

Today's Extremes

State Highs State Lows

Community

WunderPhotos

Upload Photos

1,962,540 photos uploaded!

WunderBlog® & News

Nearby

Air Quality

  Air Quality AQ Index Pollutant
Not available.

Snow Depth

Station Depth Elevation

Earthquake Activity

City Distance Mag. Time & Date
Minimum magnitude displayed is 2.5.

Coastal Water Temperatures

Place Temperature

Stations

Nearby Weather Stations

Station Location Temp. Windchill Dew Point Humidity Wind Precip. Elev Updated Type
                   

Watches & Warnings

There are currently no watches in effect.